createdAt,value
2023-03-13T00:55:30.880Z,0.50
2023-03-13T00:56:31.838Z,0.50
2023-03-13T00:57:31.821Z,0.50
2023-03-13T00:58:31.810Z,0.50
2023-03-13T00:59:31.809Z,0.50
2023-03-13T01:00:31.796Z,0.50
2023-03-13T01:01:31.800Z,0.39
2023-03-13T01:02:31.893Z,0.36
2023-03-13T01:03:31.821Z,0.34
2023-03-13T01:04:31.760Z,0.34
2023-03-13T01:05:31.752Z,0.36
2023-03-13T01:06:31.744Z,0.40
2023-03-13T01:07:31.738Z,0.43
2023-03-13T01:08:31.734Z,0.48
2023-03-13T01:09:31.723Z,0.50
2023-03-13T01:10:31.714Z,0.50
2023-03-13T01:11:31.724Z,0.50
2023-03-13T01:12:31.695Z,0.50
2023-03-13T01:13:31.694Z,0.51
2023-03-13T01:14:31.672Z,0.51
2023-03-13T01:15:31.717Z,0.50
2023-03-13T01:16:31.664Z,0.50
2023-03-13T01:17:31.661Z,0.51
2023-03-13T01:18:31.638Z,0.50
2023-03-13T01:19:31.627Z,0.50
2023-03-13T01:20:31.619Z,0.50
2023-03-13T01:21:31.621Z,0.50
2023-03-13T01:22:31.602Z,0.50
2023-03-13T01:23:31.623Z,0.50
2023-03-13T01:24:31.585Z,0.52
2023-03-13T01:25:31.579Z,0.50
2023-03-13T01:26:31.569Z,0.50
2023-03-13T01:27:31.584Z,0.50
2023-03-13T01:28:31.545Z,0.50
2023-03-13T01:29:31.536Z,0.50
2023-03-13T01:30:31.532Z,0.51
2023-03-13T01:31:31.729Z,0.51
2023-03-13T01:32:31.607Z,0.50
2023-03-13T01:33:31.500Z,0.51
2023-03-13T01:34:31.497Z,0.50
2023-03-13T01:35:31.543Z,0.51
2023-03-13T01:36:31.554Z,0.50
2023-03-13T01:37:31.465Z,0.51
2023-03-13T01:38:31.456Z,0.51
2023-03-13T01:39:31.447Z,0.51
2023-03-13T01:40:31.441Z,0.50
2023-03-13T01:41:31.440Z,0.50
2023-03-13T01:42:31.420Z,0.50
2023-03-13T01:43:31.441Z,0.51
2023-03-13T01:44:31.400Z,0.50
2023-03-13T01:45:31.397Z,0.50
2023-03-13T01:46:31.494Z,0.50
2023-03-13T01:47:31.375Z,0.50
2023-03-13T01:48:31.365Z,0.51
2023-03-13T01:49:31.359Z,0.50
2023-03-13T01:50:31.350Z,0.52
2023-03-13T01:51:31.343Z,0.51
2023-03-13T01:52:31.330Z,0.52
2023-03-13T01:53:31.340Z,0.50
2023-03-13T01:54:31.316Z,0.51
2023-03-13T01:55:31.307Z,0.50
2023-03-13T01:56:31.295Z,0.50
2023-03-13T01:57:31.285Z,0.50
2023-03-13T01:58:31.276Z,0.51
2023-03-13T01:59:31.288Z,0.51
2023-03-13T02:00:31.254Z,0.51
2023-03-13T02:01:31.288Z,0.51
2023-03-13T02:02:31.290Z,0.51
2023-03-13T02:03:31.228Z,0.51
2023-03-13T02:04:31.218Z,0.52
2023-03-13T02:05:31.251Z,0.51
2023-03-13T02:06:31.204Z,0.51
2023-03-13T02:07:31.207Z,0.52
2023-03-13T02:08:31.199Z,0.52
2023-03-13T02:09:31.186Z,0.51
2023-03-13T02:10:31.217Z,0.51
2023-03-13T02:11:31.166Z,0.51
2023-03-13T02:12:31.153Z,0.50
2023-03-13T02:13:31.140Z,0.51
2023-03-13T02:14:31.134Z,0.51
2023-03-13T02:15:31.145Z,0.51
2023-03-13T02:16:31.175Z,0.51
2023-03-13T02:17:31.108Z,0.51
2023-03-13T02:18:31.111Z,0.51
2023-03-13T02:19:31.076Z,0.51
2023-03-13T02:20:31.069Z,0.51
2023-03-13T02:21:31.070Z,0.51
2023-03-13T02:22:31.072Z,0.51
2023-03-13T02:23:31.041Z,0.51
2023-03-13T02:24:31.038Z,0.51
2023-03-13T02:25:31.025Z,0.51
2023-03-13T02:26:31.013Z,0.51
2023-03-13T02:27:31.005Z,0.51
2023-03-13T02:28:30.997Z,0.50
2023-03-13T02:29:30.990Z,0.50
2023-03-13T02:30:30.974Z,0.51
2023-03-13T02:31:31.098Z,0.51
2023-03-13T02:32:30.996Z,0.51
2023-03-13T02:33:30.946Z,0.51
2023-03-13T02:34:30.939Z,0.51
2023-03-13T02:35:31.082Z,0.51
2023-03-13T02:36:30.928Z,0.51
2023-03-13T02:37:30.936Z,0.50
2023-03-13T02:38:30.907Z,0.51
2023-03-13T02:39:30.889Z,0.51
2023-03-13T02:40:30.888Z,0.52
2023-03-13T02:41:30.873Z,0.51
2023-03-13T02:42:30.877Z,0.52
2023-03-13T02:43:30.893Z,0.51
2023-03-13T02:44:30.844Z,0.51
2023-03-13T02:45:30.839Z,0.52
2023-03-13T02:46:30.873Z,0.50
2023-03-13T02:47:30.850Z,0.51
2023-03-13T02:48:30.812Z,0.52
2023-03-13T02:49:30.803Z,0.51
2023-03-13T02:50:30.792Z,0.51
2023-03-13T02:51:30.788Z,0.51
2023-03-13T02:52:30.786Z,0.52
2023-03-13T02:53:30.774Z,0.51
2023-03-13T02:54:30.763Z,0.51
2023-03-13T02:55:30.749Z,0.51
2023-03-13T02:56:30.752Z,0.52
2023-03-13T02:57:30.746Z,0.52
2023-03-13T02:58:33.570Z,0.50
2023-03-13T02:59:30.712Z,0.51
2023-03-13T03:00:30.754Z,0.51
2023-03-13T03:01:30.696Z,0.51
2023-03-13T03:02:30.690Z,0.52
2023-03-13T03:03:30.719Z,0.51
2023-03-13T03:04:30.665Z,0.52
2023-03-13T03:05:30.660Z,0.50
2023-03-13T03:06:30.648Z,0.51
2023-03-13T03:07:30.644Z,0.51
2023-03-13T03:08:30.631Z,0.51
2023-03-13T03:09:30.633Z,0.51
2023-03-13T03:10:30.612Z,0.51
2023-03-13T03:11:30.611Z,0.51
2023-03-13T03:12:30.595Z,0.52
2023-03-13T03:13:30.594Z,0.51
2023-03-13T03:14:30.575Z,0.52
2023-03-13T03:15:30.568Z,0.52
2023-03-13T03:16:30.582Z,0.51
2023-03-13T03:17:30.554Z,0.52
2023-03-13T03:18:30.541Z,0.51
2023-03-13T03:19:30.555Z,0.51
2023-03-13T03:20:30.520Z,0.51
2023-03-13T03:21:30.510Z,0.51
2023-03-13T03:22:30.498Z,0.51
2023-03-13T03:23:30.506Z,0.51
2023-03-13T03:24:30.479Z,0.51
2023-03-13T03:25:30.474Z,0.52
2023-03-13T03:26:30.468Z,0.51
2023-03-13T03:27:30.453Z,0.52
2023-03-13T03:28:30.452Z,0.52
2023-03-13T03:29:30.432Z,0.52
2023-03-13T03:30:30.422Z,0.51
2023-03-13T03:31:30.460Z,0.52
2023-03-13T03:32:30.461Z,0.51
2023-03-13T03:33:30.394Z,0.51
2023-03-13T03:34:30.399Z,0.52
2023-03-13T03:35:30.446Z,0.51
2023-03-13T03:36:30.367Z,0.51
2023-03-13T03:37:30.364Z,0.52
2023-03-13T03:38:30.354Z,0.52
2023-03-13T03:39:30.354Z,0.51
2023-03-13T03:40:30.329Z,0.51
2023-03-13T03:41:30.318Z,0.52
2023-03-13T03:42:30.309Z,0.50
2023-03-13T03:43:30.446Z,0.52
2023-03-13T03:44:30.298Z,0.52
2023-03-13T03:45:30.325Z,0.51
2023-03-13T03:46:30.272Z,0.51
2023-03-13T03:47:30.375Z,0.52
2023-03-13T03:48:30.258Z,0.52
2023-03-13T03:49:30.256Z,0.51
2023-03-13T03:50:30.236Z,0.51
2023-03-13T03:51:30.248Z,0.51
2023-03-13T03:52:30.221Z,0.51
2023-03-13T03:53:30.215Z,0.51
2023-03-13T03:54:30.204Z,0.51
2023-03-13T03:55:30.215Z,0.51
2023-03-13T03:56:30.184Z,0.51
2023-03-13T03:57:30.177Z,0.51
2023-03-13T03:58:30.169Z,0.51
2023-03-13T03:59:30.157Z,0.51
2023-03-13T04:00:30.145Z,0.51
2023-03-13T04:01:30.138Z,0.51
2023-03-13T04:02:30.221Z,0.52
2023-03-13T04:03:30.263Z,0.51
2023-03-13T04:04:30.112Z,0.51
2023-03-13T04:05:30.121Z,0.50
2023-03-13T04:06:30.089Z,0.51
2023-03-13T04:07:30.113Z,0.51
2023-03-13T04:08:30.088Z,0.50
2023-03-13T04:09:32.022Z,0.51
2023-03-13T04:10:30.066Z,0.51
2023-03-13T04:11:30.048Z,0.51
2023-03-13T04:12:30.040Z,0.51
2023-03-13T04:13:30.028Z,0.51
2023-03-13T04:14:30.021Z,0.52
2023-03-13T04:15:30.008Z,0.51
2023-03-13T04:16:30.071Z,0.52
2023-03-13T04:17:29.996Z,0.51
2023-03-13T04:18:29.987Z,0.50
2023-03-13T04:19:29.977Z,0.52
2023-03-13T04:20:29.965Z,0.51
2023-03-13T04:21:30.912Z,0.50
2023-03-13T04:22:29.954Z,0.51
2023-03-13T04:23:29.962Z,0.51
2023-03-13T04:24:29.928Z,0.51
2023-03-13T04:25:29.918Z,0.51
2023-03-13T04:26:29.908Z,0.50
2023-03-13T04:27:29.900Z,0.51
2023-03-13T04:28:29.892Z,0.51
2023-03-13T04:29:29.888Z,0.51
2023-03-13T04:30:29.894Z,0.51
2023-03-13T04:31:29.862Z,0.51
2023-03-13T04:32:29.899Z,0.50
2023-03-13T04:33:29.845Z,0.52
2023-03-13T04:34:29.833Z,0.51
2023-03-13T04:35:29.866Z,0.50
2023-03-13T04:36:29.842Z,0.51
2023-03-13T04:37:29.810Z,0.51
2023-03-13T04:38:29.801Z,0.51
2023-03-13T04:39:31.971Z,0.50
2023-03-13T04:40:29.785Z,0.51
2023-03-13T04:41:29.774Z,0.51
2023-03-13T04:42:29.763Z,0.51
2023-03-13T04:43:29.764Z,0.51
2023-03-13T04:44:29.746Z,0.51
2023-03-13T04:45:29.735Z,0.52
2023-03-13T04:46:29.825Z,0.51
2023-03-13T04:47:29.724Z,0.50
2023-03-13T04:48:29.714Z,0.50
2023-03-13T04:49:29.700Z,0.51
2023-03-13T04:50:29.695Z,0.50
2023-03-13T04:51:29.680Z,0.51
2023-03-13T04:52:29.672Z,0.50
2023-03-13T04:53:29.664Z,0.51
2023-03-13T04:54:29.656Z,0.52
2023-03-13T04:55:29.665Z,0.51
2023-03-13T04:56:42.751Z,0.51
2023-03-13T05:16:29.453Z,0.51
2023-03-13T05:24:29.381Z,0.51
2023-03-13T05:40:29.240Z,0.52
2023-03-13T07:02:28.487Z,0.86
2023-03-13T07:03:28.668Z,0.86
2023-03-13T07:04:36.092Z,0.87
2023-03-13T07:05:28.548Z,0.86
2023-03-13T07:07:00.345Z,0.87
2023-03-13T07:07:35.878Z,0.86
2023-03-13T07:08:31.650Z,0.86
2023-03-13T07:09:31.660Z,0.86
2023-03-13T07:21:28.571Z,0.90
2023-03-13T07:44:28.148Z,0.83
2023-03-13T07:57:28.034Z,0.82
2023-03-13T07:58:28.014Z,0.83
2023-03-13T07:59:28.005Z,0.82
2023-03-13T08:00:28.066Z,0.83
2023-03-13T08:01:30.660Z,0.83
2023-03-13T08:03:29.085Z,0.83
2023-03-13T08:04:27.971Z,0.83
2023-03-13T08:05:28.122Z,0.83
2023-03-13T08:06:27.950Z,0.83
2023-03-13T08:07:28.054Z,0.82
2023-03-13T08:08:28.052Z,0.82
2023-03-13T08:09:27.902Z,0.80
2023-03-13T08:10:28.046Z,0.83
2023-03-13T08:11:27.909Z,0.82
2023-03-13T08:12:27.864Z,0.81
2023-03-13T08:13:27.849Z,0.81
2023-03-13T08:14:28.041Z,0.81
2023-03-13T08:15:28.067Z,0.80
2023-03-13T08:16:27.913Z,0.81
2023-03-13T08:17:27.818Z,0.80
2023-03-13T08:18:28.042Z,0.80
2023-03-13T08:19:27.804Z,0.81
2023-03-13T08:20:27.795Z,0.81
2023-03-13T08:21:27.784Z,0.80
2023-03-13T08:22:27.773Z,0.79
2023-03-13T08:23:28.068Z,0.80
2023-03-13T08:24:27.757Z,0.79
2023-03-13T08:25:27.740Z,0.79
2023-03-13T08:26:27.732Z,0.79
2023-03-13T08:27:27.725Z,0.78
2023-03-13T08:28:28.053Z,0.79
2023-03-13T08:29:27.711Z,0.78
2023-03-13T08:30:27.834Z,0.78
2023-03-13T08:31:28.047Z,0.77
2023-03-13T08:32:27.778Z,0.76
2023-03-13T08:33:27.677Z,0.79
2023-03-13T08:35:27.677Z,0.79
2023-03-13T08:36:28.040Z,0.78
2023-03-13T08:37:28.544Z,0.80
2023-03-13T08:38:28.048Z,0.80
2023-03-13T08:39:27.644Z,0.74
2023-03-13T08:40:27.636Z,0.72
2023-03-13T08:41:28.044Z,0.77
2023-03-13T08:42:27.589Z,0.80
2023-03-13T08:43:27.595Z,0.80
2023-03-13T08:44:28.069Z,0.83
2023-03-13T08:45:28.246Z,0.84
2023-03-13T08:46:28.129Z,0.86
2023-03-13T08:47:27.573Z,0.84
2023-03-13T08:48:27.546Z,0.85
2023-03-13T08:49:27.567Z,0.82
2023-03-13T08:50:27.579Z,0.77
2023-03-13T08:51:27.552Z,0.72
2023-03-13T08:52:27.521Z,0.75
2023-03-13T08:53:27.493Z,0.82
2023-03-13T08:54:27.495Z,0.86
2023-03-13T08:55:28.586Z,0.90
2023-03-13T08:56:27.621Z,0.91
2023-03-13T08:57:27.460Z,0.93
2023-03-13T08:58:27.454Z,0.91
2023-03-13T08:59:27.559Z,0.91
2023-03-13T09:00:27.437Z,0.91
2023-03-13T09:01:28.423Z,0.91
2023-03-13T09:02:27.454Z,0.92
2023-03-13T09:03:28.438Z,0.90
2023-03-13T09:04:27.604Z,0.89
2023-03-13T09:05:28.410Z,0.82
2023-03-13T09:06:27.381Z,0.74
2023-03-13T09:07:28.392Z,0.77
2023-03-13T09:08:27.395Z,0.77
2023-03-13T09:09:27.582Z,0.80
2023-03-13T09:10:27.376Z,0.80
2023-03-13T09:11:27.732Z,0.83
2023-03-13T09:12:31.269Z,0.84
2023-03-13T09:13:27.328Z,0.84
2023-03-13T09:14:27.592Z,0.84
2023-03-13T09:15:27.366Z,0.84
2023-03-13T09:16:27.313Z,0.85
2023-03-13T09:17:27.324Z,0.85
2023-03-13T09:18:27.368Z,0.89
2023-03-13T09:19:27.593Z,0.92
2023-03-13T09:20:27.283Z,0.94
2023-03-13T09:21:27.594Z,0.94
2023-03-13T09:22:27.258Z,0.93
2023-03-13T09:23:27.258Z,0.84
2023-03-13T09:24:27.243Z,0.81
2023-03-13T09:25:27.238Z,0.83
2023-03-13T09:26:27.921Z,0.87
2023-03-13T09:27:27.620Z,0.90
2023-03-13T09:28:27.210Z,0.93
2023-03-13T09:29:27.210Z,0.95
2023-03-13T09:30:27.196Z,0.96
2023-03-13T09:31:27.646Z,1.00
2023-03-13T09:32:27.645Z,0.99
2023-03-13T09:33:27.163Z,0.99
2023-03-13T09:34:27.145Z,1.01
2023-03-13T09:35:28.115Z,1.02
2023-03-13T09:36:27.189Z,1.01
2023-03-13T09:37:27.112Z,1.02
2023-03-13T09:38:27.122Z,1.02
2023-03-13T09:39:27.112Z,1.00
2023-03-13T09:40:27.107Z,1.03
2023-03-13T09:41:27.086Z,1.00
2023-03-13T09:42:27.102Z,1.00
2023-03-13T09:43:27.072Z,1.05
2023-03-13T09:44:27.073Z,1.08
2023-03-13T09:45:27.029Z,1.07
2023-03-13T09:46:27.118Z,1.06
2023-03-13T09:47:27.085Z,1.07
2023-03-13T09:48:26.999Z,1.07
2023-03-13T09:49:27.089Z,1.09
2023-03-13T09:50:26.986Z,1.12
2023-03-13T09:51:27.078Z,1.15
2023-03-13T09:52:27.091Z,1.15
2023-03-13T09:53:27.001Z,1.15
2023-03-13T09:54:26.948Z,1.10
2023-03-13T09:55:26.982Z,1.00
2023-03-13T09:56:26.923Z,0.93
2023-03-13T09:57:26.924Z,0.91
2023-03-13T09:58:26.922Z,0.89
2023-03-13T09:59:26.940Z,0.85
2023-03-13T10:00:26.925Z,0.83
2023-03-13T10:01:27.129Z,0.79
2023-03-13T10:02:26.869Z,0.78
2023-03-13T10:03:27.078Z,0.77
2023-03-13T10:04:26.918Z,0.75
2023-03-13T10:05:26.840Z,0.74
2023-03-13T10:06:27.079Z,0.70
2023-03-13T10:07:26.821Z,0.70
2023-03-13T10:08:27.080Z,0.68
2023-03-13T10:09:26.808Z,0.68
2023-03-13T10:10:26.794Z,0.65
2023-03-13T10:11:26.781Z,0.68
2023-03-13T10:12:27.837Z,0.65
2023-03-13T10:13:26.781Z,0.70
2023-03-13T10:14:26.758Z,0.72
2023-03-13T10:15:26.778Z,0.77
2023-03-13T10:16:26.793Z,0.79
2023-03-13T10:17:27.080Z,0.80
2023-03-13T10:18:26.724Z,0.81
2023-03-13T10:19:26.711Z,0.82
2023-03-13T10:20:26.702Z,0.83
2023-03-13T10:21:26.695Z,0.85
2023-03-13T10:22:27.087Z,0.86
2023-03-13T10:23:27.082Z,0.88
2023-03-13T10:24:26.678Z,0.91
2023-03-13T10:25:26.669Z,0.95
2023-03-13T10:26:27.087Z,0.98
2023-03-13T10:27:26.640Z,0.97
2023-03-13T10:28:26.648Z,0.99
2023-03-13T10:29:27.088Z,1.01
2023-03-13T10:30:26.635Z,1.01
2023-03-13T10:31:26.883Z,1.04
2023-03-13T10:32:26.620Z,1.08
2023-03-13T10:33:26.588Z,1.12
2023-03-13T10:34:26.612Z,1.06
2023-03-13T10:35:26.579Z,1.05
2023-03-13T10:36:26.561Z,1.07
2023-03-13T10:37:26.565Z,1.07
2023-03-13T10:39:26.546Z,1.08
2023-03-13T10:40:26.523Z,1.08
2023-03-13T10:41:27.552Z,1.11
2023-03-13T10:42:26.554Z,1.09
2023-03-13T10:43:26.615Z,1.14
2023-03-13T10:44:27.136Z,1.23
2023-03-13T10:45:26.492Z,1.61
2023-03-13T10:46:26.519Z,1.93
2023-03-13T10:47:26.624Z,2.10
2023-03-13T10:48:26.595Z,2.19
2023-03-13T10:49:26.447Z,2.10
2023-03-13T10:50:26.599Z,1.95
2023-03-13T10:51:26.431Z,1.81
2023-03-13T10:52:26.593Z,1.77
2023-03-13T10:53:26.410Z,1.72
2023-03-13T10:54:26.401Z,1.72
2023-03-13T10:55:26.410Z,1.68
2023-03-13T10:56:26.392Z,1.71
2023-03-13T10:57:26.371Z,1.78
2023-03-13T10:58:26.393Z,1.77
2023-03-13T10:59:26.353Z,1.78
2023-03-13T11:00:26.352Z,1.76
2023-03-13T11:01:26.517Z,1.81
2023-03-13T11:02:26.835Z,1.92
2023-03-13T11:03:26.695Z,1.78
2023-03-13T11:04:26.312Z,1.69
2023-03-13T11:05:26.360Z,1.69
2023-03-13T11:06:26.294Z,1.66
2023-03-13T11:07:26.300Z,1.63
2023-03-13T11:08:26.344Z,1.70
2023-03-13T11:09:26.286Z,1.73
2023-03-13T11:10:26.284Z,1.74
2023-03-13T11:12:26.239Z,1.69
2023-03-13T11:13:36.116Z,1.69
2023-03-13T11:14:26.240Z,1.69
2023-03-13T11:15:26.264Z,1.69
2023-03-13T11:16:26.313Z,1.65
2023-03-13T11:17:26.213Z,1.61
2023-03-13T11:18:26.640Z,1.67
2023-03-13T11:19:26.211Z,1.73
2023-03-13T11:20:26.171Z,1.72
2023-03-13T11:21:26.168Z,1.76
2023-03-13T11:22:26.214Z,1.76
2023-03-13T11:23:26.639Z,1.74
2023-03-13T11:24:26.142Z,1.67
2023-03-13T11:25:26.132Z,1.74
2023-03-13T11:26:26.112Z,1.73
2023-03-13T11:27:26.154Z,1.64
2023-03-13T11:28:26.164Z,1.62
2023-03-13T11:29:26.143Z,1.72
2023-03-13T11:30:26.195Z,1.77
2023-03-13T11:31:26.175Z,1.81
2023-03-13T11:32:26.146Z,1.78
2023-03-13T11:33:26.059Z,1.77
2023-03-13T11:34:26.099Z,1.72
2023-03-13T11:35:26.137Z,1.67
2023-03-13T11:36:26.022Z,1.60
2023-03-13T11:37:26.022Z,1.63
2023-03-13T11:38:26.006Z,1.63
2023-03-13T11:39:26.618Z,1.67
2023-03-13T11:40:26.141Z,1.71
2023-03-13T11:41:26.036Z,1.69
2023-03-13T11:42:25.977Z,1.69
2023-03-13T11:43:26.175Z,1.69
2023-03-13T11:44:25.958Z,1.63
2023-03-13T11:45:26.173Z,1.73
2023-03-13T11:46:26.095Z,1.69
2023-03-13T11:47:25.924Z,1.66
2023-03-13T11:48:25.924Z,1.70
2023-03-13T11:50:26.133Z,1.60
2023-03-13T11:51:25.972Z,1.61
2023-03-13T11:52:25.888Z,1.60
2023-03-13T11:53:25.983Z,1.60
2023-03-13T11:54:26.119Z,1.63
2023-03-13T11:55:25.860Z,1.61
2023-03-13T11:56:26.119Z,1.59
2023-03-13T11:57:25.839Z,1.57
2023-03-13T11:58:25.830Z,1.56
2023-03-13T11:59:25.827Z,1.57
2023-03-13T12:00:25.814Z,1.56
2023-03-13T12:01:26.130Z,1.62
2023-03-13T12:02:26.912Z,1.60
2023-03-13T12:03:25.843Z,1.59
2023-03-13T12:04:26.123Z,1.55
2023-03-13T12:05:25.836Z,1.57
2023-03-13T12:06:28.567Z,1.58
2023-03-13T12:07:25.795Z,1.58
2023-03-13T12:08:25.748Z,1.59
2023-03-13T12:09:28.172Z,1.59
2023-03-13T12:10:25.728Z,1.58
2023-03-13T12:11:25.717Z,1.58
2023-03-13T12:12:26.125Z,1.58
2023-03-13T12:13:25.707Z,1.59
2023-03-13T12:14:25.705Z,1.57
2023-03-13T12:15:25.684Z,1.54
2023-03-13T12:16:26.177Z,1.57
2023-03-13T12:17:25.763Z,1.55
2023-03-13T12:18:25.910Z,1.51
2023-03-13T12:19:25.657Z,1.50
2023-03-13T12:20:25.646Z,1.48
2023-03-13T12:21:26.243Z,1.44
2023-03-13T12:22:26.109Z,1.38
2023-03-13T12:23:26.313Z,1.26
2023-03-13T12:24:26.201Z,1.26
2023-03-13T12:25:26.203Z,1.22
2023-03-13T12:26:26.008Z,1.19
2023-03-13T12:33:28.646Z,0.50
2023-03-13T12:37:29.150Z,0.50
2023-03-13T12:41:29.171Z,0.57
2023-03-13T12:45:28.671Z,0.62
2023-03-13T12:49:28.649Z,0.76
2023-03-13T12:53:28.147Z,0.73
2023-03-13T12:57:28.208Z,0.70
2023-03-13T13:01:27.532Z,0.65
2023-03-13T13:05:27.676Z,0.66
2023-03-13T13:09:27.205Z,0.68
2023-03-13T13:13:26.678Z,0.80
2023-03-13T13:17:26.654Z,0.73
2023-03-13T13:21:26.154Z,0.66
2023-03-13T13:25:26.150Z,0.62
2023-03-13T13:29:25.786Z,0.59
2023-03-13T13:33:25.714Z,0.57
2023-03-13T13:37:25.158Z,0.57
2023-03-13T13:41:25.632Z,0.51
2023-03-13T13:45:24.684Z,0.51
2023-03-13T13:49:24.169Z,0.51
2023-03-13T13:53:24.161Z,0.53
2023-03-13T13:57:24.196Z,0.72
2023-03-13T14:01:23.722Z,0.77
2023-03-13T14:05:24.751Z,0.79
2023-03-13T14:09:23.670Z,0.80
2023-03-13T14:13:23.176Z,0.76
2023-03-13T14:17:23.198Z,0.76
2023-03-13T14:21:22.687Z,0.73
2023-03-13T14:25:22.684Z,0.73
2023-03-13T14:29:22.184Z,0.73
2023-03-13T14:33:21.730Z,0.70
2023-03-13T14:37:21.689Z,0.73
2023-03-13T14:41:21.188Z,0.76
2023-03-13T14:45:21.226Z,0.76
2023-03-13T14:49:20.831Z,0.74
2023-03-13T14:53:20.858Z,0.78
2023-03-13T14:57:20.238Z,0.72
2023-03-13T15:01:20.405Z,0.61
2023-03-13T15:05:19.774Z,0.63
2023-03-13T15:09:19.695Z,0.64
2023-03-13T15:13:19.866Z,0.58
2023-03-13T15:17:19.221Z,0.60
2023-03-13T15:21:18.695Z,0.67
2023-03-13T15:25:18.698Z,0.65
2023-03-13T15:29:18.213Z,0.70
2023-03-13T15:33:18.213Z,0.73
2023-03-13T15:37:17.595Z,0.64
2023-03-13T15:41:17.712Z,0.57
2023-03-13T15:45:17.226Z,0.54
2023-03-13T15:49:17.009Z,0.60
2023-03-13T15:53:20.514Z,0.60
2023-03-13T15:57:16.726Z,0.72
2023-03-13T16:01:16.345Z,0.83
2023-03-13T16:05:16.219Z,0.86
2023-03-13T16:09:15.728Z,0.82
2023-03-13T16:13:15.730Z,0.84
2023-03-13T16:17:15.722Z,0.84
2023-03-13T16:21:15.224Z,0.85
2023-03-13T16:25:15.405Z,0.86
2023-03-13T16:29:14.899Z,0.87
2023-03-13T16:33:14.782Z,0.90
2023-03-13T16:37:14.713Z,0.90
2023-03-13T16:41:15.444Z,0.90
2023-03-13T16:45:14.509Z,0.92
2023-03-13T16:49:14.438Z,0.92
2023-03-13T16:53:14.370Z,0.92
2023-03-13T16:57:14.323Z,0.93
2023-03-13T17:01:14.241Z,0.94
2023-03-13T17:05:14.182Z,0.92
2023-03-13T17:09:14.125Z,0.92
2023-03-13T17:13:14.091Z,0.92
2023-03-13T17:17:14.026Z,0.92
2023-03-13T17:21:14.000Z,0.91
2023-03-13T17:25:13.944Z,0.90
2023-03-13T17:29:13.931Z,0.89
2023-03-13T17:33:13.870Z,0.90
2023-03-13T17:37:13.819Z,0.89
2023-03-13T17:41:13.787Z,0.88
2023-03-13T17:45:13.799Z,0.88
2023-03-13T17:49:14.246Z,0.88
2023-03-13T17:53:13.734Z,0.86
2023-03-13T17:57:13.721Z,0.85
2023-03-13T18:01:13.741Z,0.85
2023-03-13T18:05:13.678Z,0.85
2023-03-13T18:09:13.649Z,0.84
2023-03-13T18:13:13.628Z,0.82
2023-03-13T18:17:13.647Z,0.83
2023-03-13T18:21:13.620Z,0.81
2023-03-13T18:25:13.362Z,0.81
2023-03-13T18:29:13.123Z,0.81
2023-03-13T18:33:12.896Z,0.79
2023-03-13T18:37:12.601Z,0.78
2023-03-13T18:41:12.344Z,0.79
2023-03-13T18:45:12.086Z,0.77
2023-03-13T18:49:12.004Z,0.78
2023-03-13T18:53:11.699Z,0.77
2023-03-13T18:57:11.450Z,0.77
2023-03-13T19:01:11.236Z,0.76
2023-03-13T19:05:10.968Z,0.75
2023-03-13T19:09:31.668Z,0.75
2023-03-13T19:13:10.471Z,0.75
2023-03-13T19:17:10.222Z,0.75
2023-03-13T19:21:10.002Z,0.74
2023-03-13T19:25:09.746Z,0.73
2023-03-13T19:29:09.498Z,0.73
2023-03-13T19:33:09.271Z,0.72
2023-03-13T19:37:09.104Z,0.72
2023-03-13T19:41:09.085Z,0.72
2023-03-13T19:45:09.085Z,0.71
2023-03-13T19:49:08.838Z,0.70
2023-03-13T19:53:08.619Z,0.70
2023-03-13T19:57:08.361Z,0.68
2023-03-13T20:01:17.272Z,0.69
2023-03-13T20:05:09.165Z,0.69
2023-03-13T20:09:07.675Z,0.69
2023-03-13T20:13:08.239Z,0.69
2023-03-13T20:17:07.138Z,0.68
2023-03-13T20:21:06.873Z,0.68
2023-03-13T20:25:06.891Z,0.67
2023-03-13T20:29:06.606Z,0.66
2023-03-13T20:33:06.404Z,0.66
2023-03-13T20:37:06.165Z,0.66
2023-03-13T20:41:05.931Z,0.65
2023-03-13T20:45:05.592Z,0.64
2023-03-13T20:49:05.353Z,0.65
2023-03-13T20:53:05.176Z,0.64
2023-03-13T20:57:04.967Z,0.63
2023-03-13T21:01:04.628Z,0.63
2023-03-13T21:05:04.368Z,0.62
2023-03-13T21:09:04.106Z,0.61
2023-03-13T21:13:03.900Z,0.61
2023-03-13T21:17:03.721Z,0.60
2023-03-13T21:21:03.585Z,0.59
2023-03-13T21:25:03.350Z,0.60
2023-03-13T21:29:03.132Z,0.59
2023-03-13T21:33:02.872Z,0.58
2023-03-13T21:37:02.638Z,0.58
2023-03-13T21:41:02.398Z,0.57
2023-03-13T21:45:02.324Z,0.57
2023-03-13T21:49:02.096Z,0.57
2023-03-13T21:53:01.864Z,0.57
2023-03-13T21:57:01.597Z,0.56
2023-03-13T22:01:01.475Z,0.55
2023-03-13T22:05:01.137Z,0.55
2023-03-13T22:09:00.911Z,0.54
2023-03-13T22:13:00.685Z,0.54
2023-03-13T22:17:00.644Z,0.53
2023-03-13T22:21:00.423Z,0.53
2023-03-13T22:25:00.170Z,0.53
2023-03-13T22:28:59.975Z,0.52
2023-03-13T22:32:59.975Z,0.51
2023-03-13T22:36:59.542Z,0.50
2023-03-13T22:40:59.309Z,0.50
2023-03-13T22:44:59.320Z,0.50
2023-03-13T22:48:59.126Z,0.50
2023-03-13T22:52:58.879Z,0.51
2023-03-13T22:56:58.663Z,0.51
2023-03-13T23:00:58.509Z,0.51
2023-03-13T23:04:58.241Z,0.51
2023-03-13T23:08:57.987Z,0.51
2023-03-13T23:12:58.012Z,0.50
2023-03-13T23:16:57.798Z,0.51
2023-03-13T23:20:57.609Z,0.51
2023-03-13T23:24:57.371Z,0.51
2023-03-13T23:28:57.147Z,0.51
2023-03-13T23:32:56.885Z,0.51
2023-03-13T23:36:56.624Z,0.51
2023-03-13T23:40:56.374Z,0.52
2023-03-13T23:44:56.353Z,0.52
2023-03-13T23:48:56.116Z,0.53
2023-03-13T23:52:55.912Z,0.53
2023-03-13T23:56:55.657Z,0.52
